createdAt,value
2018-02-05T00:00:28.609Z,1026.98
2018-02-05T00:01:28.403Z,1026.95
2018-02-05T00:02:28.649Z,1026.89
2018-02-05T00:03:50.452Z,1026.92
2018-02-05T00:04:50.838Z,1026.88
2018-02-05T00:05:51.342Z,1026.92
2018-02-05T00:06:50.855Z,1026.97
2018-02-05T00:07:51.913Z,1026.94
2018-02-05T00:08:51.522Z,1026.96
2018-02-05T00:09:51.318Z,1026.96
2018-02-05T00:10:50.813Z,1027.01
2018-02-05T00:11:51.345Z,1026.97
2018-02-05T00:12:51.195Z,1026.94
2018-02-05T00:13:51.357Z,1026.94
2018-02-05T00:14:51.109Z,1026.93
2018-02-05T00:15:50.909Z,1026.94
2018-02-05T00:16:51.231Z,1026.97
2018-02-05T00:17:50.671Z,1026.99
2018-02-05T00:18:51.505Z,1026.99
2018-02-05T00:19:51.111Z,1027.03
2018-02-05T00:20:50.868Z,1027.01
2018-02-05T00:21:51.202Z,1027.01
2018-02-05T00:22:51.474Z,1027.03
2018-02-05T00:23:51.449Z,1027.04
2018-02-05T00:24:50.768Z,1027.03
2018-02-05T00:25:51.604Z,1027.06
2018-02-05T00:27:13.884Z,1027.05
2018-02-05T00:28:14.909Z,1027.05
2018-02-05T00:29:36.981Z,1027.02
2018-02-05T00:30:37.702Z,1027.04
2018-02-05T00:31:37.563Z,1027.04
2018-02-05T00:32:37.363Z,1027.07
2018-02-05T00:33:37.616Z,1027.06
2018-02-05T00:34:37.725Z,1027.08
2018-02-05T00:35:37.619Z,1027.07
2018-02-05T00:36:37.279Z,1027.10
2018-02-05T00:37:38.083Z,1027.09
2018-02-05T00:38:37.834Z,1027.05
2018-02-05T00:39:37.753Z,1027.07
2018-02-05T00:40:37.099Z,1027.10
2018-02-05T00:41:37.706Z,1027.07
2018-02-05T00:42:37.474Z,1027.12
2018-02-05T00:43:37.976Z,1027.10
2018-02-05T00:44:37.796Z,1027.16
2018-02-05T00:45:37.482Z,1027.18
2018-02-05T00:46:38.067Z,1027.16
2018-02-05T00:47:37.499Z,1027.19
2018-02-05T00:48:37.241Z,1027.16
2018-02-05T00:49:59.981Z,1027.13
2018-02-05T00:51:01.026Z,1027.13
2018-02-05T00:52:00.642Z,1027.13
2018-02-05T00:53:00.102Z,1027.14
2018-02-05T00:54:00.695Z,1027.08
2018-02-05T00:55:22.731Z,1027.07
2018-02-05T00:56:23.239Z,1027.09
2018-02-05T00:57:23.147Z,1027.09
2018-02-05T00:58:45.143Z,1027.11
2018-02-05T00:59:45.785Z,1027.11
2018-02-05T01:00:46.231Z,1027.11
2018-02-05T01:01:45.885Z,1027.08
2018-02-05T01:02:45.612Z,1027.11
2018-02-05T01:03:46.260Z,1027.13
2018-02-05T01:04:45.780Z,1027.08
2018-02-05T01:05:45.635Z,1027.10
2018-02-05T01:06:46.399Z,1027.08
2018-02-05T01:07:46.043Z,1027.11
2018-02-05T01:08:45.796Z,1027.13
2018-02-05T01:09:45.747Z,1027.14
2018-02-05T01:11:07.692Z,1027.09
2018-02-05T01:12:08.810Z,1027.09
2018-02-05T01:13:08.548Z,1027.08
2018-02-05T01:14:08.273Z,1027.09
2018-02-05T01:15:08.118Z,1027.04
2018-02-05T01:16:08.759Z,1027.07
2018-02-05T01:17:08.747Z,1027.01
2018-02-05T01:18:08.466Z,1027.09
2018-02-05T01:19:08.036Z,1027.09
2018-02-05T01:20:53.724Z,1027.08
2018-02-05T01:21:54.325Z,1027.12
2018-02-05T01:22:53.820Z,1027.13
2018-02-05T01:23:54.263Z,1027.12
2018-02-05T01:24:53.861Z,1027.17
2018-02-05T01:25:54.113Z,1027.14
2018-02-05T01:26:53.820Z,1027.14
2018-02-05T01:27:54.515Z,1027.15
2018-02-05T01:29:16.317Z,1027.11
2018-02-05T01:30:17.211Z,1027.11
2018-02-05T01:31:16.616Z,1027.06
2018-02-05T01:32:17.418Z,1027.13
2018-02-05T01:33:17.559Z,1027.14
2018-02-05T01:34:17.159Z,1027.14
2018-02-05T01:35:16.757Z,1027.16
2018-02-05T01:36:17.277Z,1027.09
2018-02-05T01:37:16.936Z,1027.11
2018-02-05T01:38:39.893Z,1027.07
2018-02-05T01:39:40.216Z,1027.07
2018-02-05T01:40:40.960Z,1027.05
2018-02-05T01:41:40.433Z,1027.12
2018-02-05T01:42:40.690Z,1027.09
2018-02-05T01:43:40.399Z,1027.07
2018-02-05T01:44:41.184Z,1027.08
2018-02-05T01:45:41.055Z,1027.07
2018-02-05T01:46:40.725Z,1027.09
2018-02-05T01:47:39.974Z,1027.11
2018-02-05T01:48:40.464Z,1027.09
2018-02-05T01:49:40.925Z,1027.03
2018-02-05T01:50:40.347Z,1027.07
2018-02-05T01:51:40.952Z,1027.03
2018-02-05T01:53:03.448Z,1027.06
2018-02-05T01:54:04.471Z,1027.11
2018-02-05T01:55:03.936Z,1027.12
2018-02-05T01:56:03.407Z,1027.07
2018-02-05T01:57:03.998Z,1027.13
2018-02-05T01:58:03.690Z,1027.12
2018-02-05T01:59:04.602Z,1027.13
2018-02-05T02:00:03.803Z,1027.15
2018-02-05T02:01:25.539Z,1027.15
2018-02-05T02:02:26.211Z,1027.15
2018-02-05T02:03:25.663Z,1027.17
2018-02-05T02:04:26.309Z,1027.15
2018-02-05T02:05:25.689Z,1027.22
2018-02-05T02:06:26.094Z,1027.21
2018-02-05T02:07:25.374Z,1027.23
2018-02-05T02:08:25.911Z,1027.24
2018-02-05T02:09:26.592Z,1027.21
2018-02-05T02:10:25.898Z,1027.21
2018-02-05T02:11:26.460Z,1027.22
2018-02-05T02:12:25.902Z,1027.24
2018-02-05T02:13:26.234Z,1027.20
2018-02-05T02:14:25.848Z,1027.26
2018-02-05T02:15:26.251Z,1027.30
2018-02-05T02:16:25.961Z,1027.26
2018-02-05T02:17:26.442Z,1027.34
2018-02-05T02:18:25.865Z,1027.31
2018-02-05T02:19:25.455Z,1027.32
2018-02-05T02:20:26.141Z,1027.34
2018-02-05T02:21:25.368Z,1027.38
2018-02-05T02:22:26.044Z,1027.35
2018-02-05T02:23:26.366Z,1027.38
2018-02-05T02:24:25.673Z,1027.39
2018-02-05T02:25:26.383Z,1027.38
2018-02-05T02:26:26.207Z,1027.41
2018-02-05T02:27:25.765Z,1027.41
2018-02-05T02:28:26.121Z,1027.43
2018-02-05T02:29:25.866Z,1027.42
2018-02-05T02:30:26.587Z,1027.41
2018-02-05T02:31:26.135Z,1027.43
2018-02-05T02:32:25.388Z,1027.44
2018-02-05T02:33:25.881Z,1027.47
2018-02-05T02:34:26.046Z,1027.47
2018-02-05T02:35:25.443Z,1027.48
2018-02-05T02:36:26.225Z,1027.42
2018-02-05T02:37:26.058Z,1027.47
2018-02-05T02:38:25.658Z,1027.49
2018-02-05T02:39:25.908Z,1027.50
2018-02-05T02:40:26.148Z,1027.48
2018-02-05T02:41:25.363Z,1027.50
2018-02-05T02:42:25.653Z,1027.49
2018-02-05T02:43:25.817Z,1027.49
2018-02-05T02:44:26.206Z,1027.52
2018-02-05T02:45:25.469Z,1027.52
2018-02-05T02:46:25.909Z,1027.54
2018-02-05T02:47:25.287Z,1027.59
2018-02-05T02:48:25.958Z,1027.57
2018-02-05T02:49:25.670Z,1027.57
2018-02-05T02:50:26.237Z,1027.57
2018-02-05T02:51:25.573Z,1027.58
2018-02-05T02:52:25.767Z,1027.50
2018-02-05T02:53:26.190Z,1027.53
2018-02-05T02:54:25.487Z,1027.52
2018-02-05T02:55:25.725Z,1027.54
2018-02-05T02:56:25.774Z,1027.55
2018-02-05T02:57:25.910Z,1027.57
2018-02-05T02:58:26.558Z,1027.57
2018-02-05T02:59:25.932Z,1027.55
2018-02-05T03:00:26.542Z,1027.53
2018-02-05T03:01:25.780Z,1027.58
2018-02-05T03:02:26.128Z,1027.62
2018-02-05T03:03:25.262Z,1027.62
2018-02-05T03:04:25.677Z,1027.60
2018-02-05T03:05:25.929Z,1027.61
2018-02-05T03:06:46.107Z,1027.63
2018-02-05T03:07:46.391Z,1027.61
2018-02-05T03:08:46.611Z,1027.60
2018-02-05T03:10:08.002Z,1027.60
2018-02-05T03:11:08.304Z,1027.61
2018-02-05T03:12:08.480Z,1027.63
2018-02-05T03:13:09.298Z,1027.62
2018-02-05T03:14:08.740Z,1027.59
2018-02-05T03:15:08.668Z,1027.64
2018-02-05T03:16:09.385Z,1027.66
2018-02-05T03:17:08.667Z,1027.71
2018-02-05T03:18:08.829Z,1027.67
2018-02-05T03:19:08.150Z,1027.64
2018-02-05T03:20:09.496Z,1027.66
2018-02-05T03:21:08.927Z,1027.74
2018-02-05T03:22:08.523Z,1027.69
2018-02-05T03:23:08.928Z,1027.70
2018-02-05T03:24:08.449Z,1027.74
2018-02-05T03:25:08.968Z,1027.74
2018-02-05T03:26:08.343Z,1027.77
2018-02-05T03:27:08.692Z,1027.80
2018-02-05T03:28:09.093Z,1027.81
2018-02-05T03:29:08.346Z,1027.79
2018-02-05T03:30:08.635Z,1027.74
2018-02-05T03:31:08.874Z,1027.77
2018-02-05T03:32:08.113Z,1027.79
2018-02-05T03:33:08.605Z,1027.82
2018-02-05T03:34:08.749Z,1027.84
2018-02-05T03:35:08.140Z,1027.81
2018-02-05T03:36:08.758Z,1027.83
2018-02-05T03:37:08.883Z,1027.82
2018-02-05T03:38:29.371Z,1027.81
2018-02-05T03:39:29.585Z,1027.82
2018-02-05T03:40:30.016Z,1027.83
2018-02-05T03:41:29.751Z,1027.86
2018-02-05T03:42:30.093Z,1027.83
2018-02-05T03:43:29.535Z,1027.82
2018-02-05T03:44:29.620Z,1027.84
2018-02-05T03:45:30.054Z,1027.82
2018-02-05T03:46:29.336Z,1027.83
2018-02-05T03:47:29.853Z,1027.86
2018-02-05T03:48:30.156Z,1027.92
2018-02-05T03:49:29.796Z,1027.95
2018-02-05T03:50:30.391Z,1027.94
2018-02-05T03:51:30.012Z,1027.90
2018-02-05T03:52:29.382Z,1027.95
2018-02-05T03:53:30.045Z,1027.96
2018-02-05T03:54:29.370Z,1027.98
2018-02-05T03:55:29.784Z,1027.94
2018-02-05T03:56:30.765Z,1027.92
2018-02-05T03:57:30.093Z,1027.97
2018-02-05T03:58:29.402Z,1027.97
2018-02-05T03:59:29.826Z,1027.96
2018-02-05T04:00:52.343Z,1028.00
2018-02-05T04:01:52.993Z,1027.99
2018-02-05T04:02:52.745Z,1028.04
2018-02-05T04:03:53.008Z,1028.00
2018-02-05T04:04:52.306Z,1028.02
2018-02-05T04:05:52.522Z,1028.05
2018-02-05T04:06:52.888Z,1028.05
2018-02-05T04:07:52.358Z,1028.07
2018-02-05T04:08:52.821Z,1028.06
2018-02-05T04:09:52.088Z,1028.11
2018-02-05T04:10:52.387Z,1028.11
2018-02-05T04:11:53.101Z,1028.12
2018-02-05T04:12:52.459Z,1028.09
2018-02-05T04:13:52.830Z,1028.08
2018-02-05T04:14:52.297Z,1028.10
2018-02-05T04:15:52.575Z,1028.12
2018-02-05T04:16:52.997Z,1028.16
2018-02-05T04:17:52.245Z,1028.14
2018-02-05T04:18:52.360Z,1028.14
2018-02-05T04:19:52.564Z,1028.12
2018-02-05T04:20:52.994Z,1028.17
2018-02-05T04:21:52.193Z,1028.14
2018-02-05T04:22:53.260Z,1028.18
2018-02-05T04:23:53.579Z,1028.16
2018-02-05T04:24:53.119Z,1028.16
2018-02-05T04:25:52.491Z,1028.13
2018-02-05T04:26:52.853Z,1028.13
2018-02-05T04:27:52.226Z,1028.16
2018-02-05T04:28:52.666Z,1028.15
2018-02-05T04:29:52.951Z,1028.15
2018-02-05T04:30:52.305Z,1028.21
2018-02-05T04:31:52.992Z,1028.22
2018-02-05T04:32:52.335Z,1028.21
2018-02-05T04:33:52.872Z,1028.25
2018-02-05T04:34:52.530Z,1028.23
2018-02-05T04:35:52.053Z,1028.20
2018-02-05T04:36:52.357Z,1028.17
2018-02-05T04:37:52.506Z,1028.21
2018-02-05T04:38:52.942Z,1028.26
2018-02-05T04:39:52.058Z,1028.25
2018-02-05T04:40:52.212Z,1028.26
2018-02-05T04:41:52.630Z,1028.25
2018-02-05T04:42:52.259Z,1028.24
2018-02-05T04:44:13.609Z,1028.26
2018-02-05T04:46:25.542Z,1028.29
2018-02-05T04:47:26.110Z,1028.31
2018-02-05T04:48:26.429Z,1028.35
2018-02-05T04:49:26.237Z,1028.35
2018-02-05T04:50:25.822Z,1028.39
2018-02-05T04:51:25.932Z,1028.35
2018-02-05T04:52:26.465Z,1028.42
2018-02-05T04:53:25.965Z,1028.40
2018-02-05T04:55:10.055Z,1028.40
2018-02-05T04:56:10.785Z,1028.33
2018-02-05T04:57:10.361Z,1028.30
2018-02-05T04:58:10.137Z,1028.29
2018-02-05T04:59:10.602Z,1028.37
2018-02-05T05:00:31.101Z,1028.38
2018-02-05T05:01:31.503Z,1028.37
2018-02-05T05:02:53.235Z,1028.38
2018-02-05T05:03:53.421Z,1028.39
2018-02-05T05:04:53.159Z,1028.41
2018-02-05T05:05:53.873Z,1028.39
2018-02-05T05:06:53.135Z,1028.43
2018-02-05T05:07:53.781Z,1028.39
2018-02-05T05:08:53.381Z,1028.40
2018-02-05T05:09:53.736Z,1028.39
2018-02-05T05:10:53.416Z,1028.42
2018-02-05T05:11:53.970Z,1028.43
2018-02-05T05:12:53.390Z,1028.42
2018-02-05T05:13:53.833Z,1028.40
2018-02-05T05:14:53.288Z,1028.43
2018-02-05T05:15:53.566Z,1028.41
2018-02-05T05:16:53.014Z,1028.41
2018-02-05T05:17:53.818Z,1028.46
2018-02-05T05:18:53.211Z,1028.45
2018-02-05T05:19:53.793Z,1028.46
2018-02-05T05:20:53.209Z,1028.40
2018-02-05T05:21:53.452Z,1028.41
2018-02-05T05:22:53.058Z,1028.41
2018-02-05T05:23:53.611Z,1028.43
2018-02-05T05:24:52.909Z,1028.44
2018-02-05T05:25:53.233Z,1028.40
2018-02-05T05:26:53.823Z,1028.40
2018-02-05T05:27:53.299Z,1028.42
2018-02-05T05:28:54.118Z,1028.40
2018-02-05T05:29:53.714Z,1028.45
2018-02-05T05:30:53.260Z,1028.41
2018-02-05T05:31:55.494Z,1028.42
2018-02-05T05:32:53.498Z,1028.39
2018-02-05T05:33:54.526Z,1028.27
2018-02-05T05:34:53.064Z,1028.42
2018-02-05T05:35:56.652Z,1028.34
2018-02-05T05:36:53.329Z,1028.38
2018-02-05T05:37:55.407Z,1028.39
2018-02-05T05:38:54.322Z,1028.42
2018-02-05T05:39:55.798Z,1028.36
2018-02-05T05:40:53.171Z,1028.38
2018-02-05T05:41:53.740Z,1028.43
2018-02-05T05:42:54.012Z,1028.42
2018-02-05T05:43:55.157Z,1028.36
2018-02-05T05:44:53.581Z,1028.44
2018-02-05T05:45:53.129Z,1028.46
2018-02-05T05:46:54.519Z,1028.44
2018-02-05T05:47:55.435Z,1028.39
2018-02-05T05:48:55.787Z,1028.41
2018-02-05T05:49:54.841Z,1028.38
2018-02-05T05:50:53.335Z,1028.34
2018-02-05T05:51:56.206Z,1028.40
2018-02-05T05:52:55.357Z,1028.36
2018-02-05T05:53:53.956Z,1028.37
2018-02-05T05:54:55.072Z,1028.38
2018-02-05T05:55:55.031Z,1028.43
2018-02-05T05:56:53.899Z,1028.42
2018-02-05T05:57:55.063Z,1028.43
2018-02-05T05:58:54.585Z,1028.44
2018-02-05T05:59:53.838Z,1028.44
2018-02-05T06:00:53.608Z,1028.46
2018-02-05T06:01:55.347Z,1028.45
2018-02-05T06:02:54.062Z,1028.47
2018-02-05T06:03:55.025Z,1028.49
2018-02-05T06:04:54.355Z,1028.46
2018-02-05T06:05:54.498Z,1028.41
2018-02-05T06:06:53.571Z,1028.45
2018-02-05T06:07:53.434Z,1028.46
2018-02-05T06:08:54.915Z,1028.52
2018-02-05T06:09:53.400Z,1028.48
2018-02-05T06:10:54.014Z,1028.52
2018-02-05T06:11:53.800Z,1028.49
2018-02-05T06:12:53.566Z,1028.50
2018-02-05T06:13:53.601Z,1028.54
2018-02-05T06:14:53.074Z,1028.52
2018-02-05T06:15:53.246Z,1028.49
2018-02-05T06:16:53.747Z,1028.48
2018-02-05T06:17:53.157Z,1028.49
2018-02-05T06:18:53.797Z,1028.50
2018-02-05T06:19:53.720Z,1028.53
2018-02-05T06:20:53.666Z,1028.49
2018-02-05T06:21:53.227Z,1028.53
2018-02-05T06:22:53.766Z,1028.50
2018-02-05T06:23:53.647Z,1028.53
2018-02-05T06:24:53.592Z,1028.58
2018-02-05T06:25:52.793Z,1028.58
2018-02-05T06:26:53.283Z,1028.57
2018-02-05T06:27:54.048Z,1028.61
2018-02-05T06:28:53.628Z,1028.61
2018-02-05T06:29:52.663Z,1028.61
2018-02-05T06:30:53.378Z,1028.63
2018-02-05T06:31:53.949Z,1028.60
2018-02-05T06:32:53.603Z,1028.67
2018-02-05T06:33:53.052Z,1028.70
2018-02-05T06:34:53.757Z,1028.72
2018-02-05T06:35:53.330Z,1028.62
2018-02-05T06:36:53.935Z,1028.62
2018-02-05T06:37:53.433Z,1028.66
2018-02-05T06:38:53.086Z,1028.65
2018-02-05T06:39:53.474Z,1028.72
2018-02-05T06:40:52.730Z,1028.68
2018-02-05T06:41:53.314Z,1028.67
2018-02-05T06:42:53.482Z,1028.73
2018-02-05T06:43:52.746Z,1028.66
2018-02-05T06:44:53.312Z,1028.66
2018-02-05T06:45:53.885Z,1028.73
2018-02-05T06:46:53.423Z,1028.73
2018-02-05T06:47:53.065Z,1028.76
2018-02-05T06:48:53.263Z,1028.75
2018-02-05T06:49:53.758Z,1028.79
2018-02-05T06:50:53.272Z,1028.76
2018-02-05T06:51:53.383Z,1028.80
2018-02-05T06:52:53.853Z,1028.81
2018-02-05T06:53:53.484Z,1028.83
2018-02-05T06:54:52.970Z,1028.88
2018-02-05T06:55:53.434Z,1028.84
2018-02-05T06:56:53.872Z,1028.88
2018-02-05T06:57:53.178Z,1028.85
2018-02-05T06:58:53.786Z,1028.84
2018-02-05T06:59:53.348Z,1028.85
2018-02-05T07:00:53.818Z,1028.86
2018-02-05T07:01:53.492Z,1028.91
2018-02-05T07:02:53.830Z,1028.91
2018-02-05T07:03:53.539Z,1028.90
2018-02-05T07:04:52.875Z,1028.90
2018-02-05T07:05:53.496Z,1028.92
2018-02-05T07:06:53.024Z,1028.94
2018-02-05T07:07:53.585Z,1028.97
2018-02-05T07:08:52.833Z,1028.95
2018-02-05T07:09:53.374Z,1028.96
2018-02-05T07:10:53.923Z,1028.99
2018-02-05T07:11:53.603Z,1028.98
2018-02-05T07:12:53.094Z,1029.01
2018-02-05T07:13:53.777Z,1029.04
2018-02-05T07:14:53.530Z,1029.01
2018-02-05T07:15:53.169Z,1029.04
2018-02-05T07:16:53.825Z,1029.03
2018-02-05T07:17:53.503Z,1029.03
2018-02-05T07:18:52.807Z,1029.02
2018-02-05T07:19:53.314Z,1029.02
2018-02-05T07:20:53.785Z,1028.98
2018-02-05T07:21:53.192Z,1028.99
2018-02-05T07:22:53.843Z,1029.00
2018-02-05T07:23:53.629Z,1029.03
2018-02-05T07:24:53.335Z,1029.08
2018-02-05T07:25:53.834Z,1029.05
2018-02-05T07:26:53.546Z,1029.09
2018-02-05T07:27:52.833Z,1029.03
2018-02-05T07:28:53.212Z,1029.06
2018-02-05T07:29:53.806Z,1029.09
2018-02-05T07:30:53.277Z,1029.08
2018-02-05T07:31:53.582Z,1029.02
2018-02-05T07:32:53.001Z,1029.03
2018-02-05T07:33:53.499Z,1029.03
2018-02-05T07:35:13.738Z,1029.03
2018-02-05T07:36:14.128Z,1029.06
2018-02-05T07:37:14.277Z,1029.06
2018-02-05T07:38:36.477Z,1029.07
2018-02-05T07:39:36.780Z,1029.05
2018-02-05T07:40:36.098Z,1029.09
2018-02-05T07:41:37.044Z,1029.08
2018-02-05T07:43:41.973Z,1029.06
2018-02-05T07:44:42.833Z,1029.03
2018-02-05T07:45:42.054Z,1029.05
2018-02-05T07:46:42.672Z,1029.02
2018-02-05T07:47:42.364Z,1029.01
2018-02-05T07:48:41.814Z,1028.97
2018-02-05T07:49:42.272Z,1028.98
2018-02-05T07:50:42.593Z,1028.98
2018-02-05T07:51:42.395Z,1028.97
2018-02-05T07:52:41.780Z,1029.03
2018-02-05T07:53:42.454Z,1028.98
2018-02-05T07:54:44.386Z,1029.01
2018-02-05T07:55:42.196Z,1028.99
2018-02-05T07:56:42.967Z,1028.95
2018-02-05T07:57:42.934Z,1028.99
2018-02-05T07:58:42.889Z,1028.99
2018-02-05T07:59:42.760Z,1029.04
2018-02-05T08:00:42.146Z,1029.03
2018-02-05T08:01:42.915Z,1028.98
2018-02-05T08:02:42.820Z,1029.04
2018-02-05T08:04:04.780Z,1029.09
2018-02-05T08:05:05.128Z,1029.06
2018-02-05T08:06:05.583Z,1029.05
2018-02-05T08:07:04.817Z,1029.04
2018-02-05T08:08:05.208Z,1029.02
2018-02-05T08:09:05.728Z,1029.01
2018-02-05T08:10:05.570Z,1029.06
2018-02-05T08:11:05.300Z,1029.10
2018-02-05T08:12:26.614Z,1029.08
2018-02-05T08:13:27.437Z,1029.04
2018-02-05T08:14:27.268Z,1029.07
2018-02-05T08:15:26.701Z,1029.07
2018-02-05T08:16:28.016Z,1029.10
2018-02-05T08:17:27.556Z,1029.05
2018-02-05T08:18:27.014Z,1029.09
2018-02-05T08:19:27.301Z,1029.06
2018-02-05T08:20:27.126Z,1029.03
2018-02-05T08:21:27.401Z,1029.09
2018-02-05T08:22:27.139Z,1029.09
2018-02-05T08:23:27.640Z,1029.02
2018-02-05T08:24:27.402Z,1029.10
2018-02-05T08:25:27.107Z,1029.09
2018-02-05T08:26:27.421Z,1029.12
2018-02-05T08:27:28.567Z,1029.06
2018-02-05T08:28:27.369Z,1029.07
2018-02-05T08:29:27.130Z,1029.11
2018-02-05T08:30:27.509Z,1029.12
2018-02-05T08:31:27.394Z,1029.11
2018-02-05T08:32:26.976Z,1029.09
2018-02-05T08:33:27.561Z,1029.10
2018-02-05T08:34:26.826Z,1029.13
2018-02-05T08:35:27.493Z,1029.12
2018-02-05T08:36:27.280Z,1029.16
2018-02-05T08:37:27.190Z,1029.16
2018-02-05T08:38:26.709Z,1029.13
2018-02-05T08:39:27.504Z,1029.11
2018-02-05T08:40:26.949Z,1029.09
2018-02-05T08:41:27.700Z,1029.13
2018-02-05T08:42:27.638Z,1029.06
2018-02-05T08:43:28.049Z,1029.18
2018-02-05T08:44:27.535Z,1029.12
2018-02-05T08:45:27.425Z,1029.12
2018-02-05T08:46:49.911Z,1029.12
2018-02-05T08:47:50.915Z,1029.11
2018-02-05T08:48:50.677Z,1029.08
2018-02-05T08:49:50.084Z,1029.06
2018-02-05T08:50:50.476Z,1029.07
2018-02-05T08:51:51.246Z,1029.09
2018-02-05T08:53:35.146Z,1029.09
2018-02-05T08:54:36.141Z,1029.10
2018-02-05T08:55:35.943Z,1029.08
2018-02-05T08:56:35.864Z,1029.02
2018-02-05T08:57:35.794Z,1029.08
2018-02-05T08:58:35.236Z,1029.05
2018-02-05T08:59:35.601Z,1029.07
2018-02-05T09:00:35.679Z,1029.11
2018-02-05T09:01:35.180Z,1029.12
2018-02-05T09:02:35.935Z,1029.10
2018-02-05T09:03:35.880Z,1029.10
2018-02-05T09:04:35.861Z,1029.11
2018-02-05T09:05:57.909Z,1029.13
2018-02-05T09:06:58.737Z,1029.07
2018-02-05T09:07:58.718Z,1029.16
2018-02-05T09:09:21.119Z,1029.14
2018-02-05T09:10:21.913Z,1029.10
2018-02-05T09:11:21.568Z,1029.11
2018-02-05T09:12:21.280Z,1029.12
2018-02-05T09:13:20.691Z,1029.10
2018-02-05T09:14:43.989Z,1029.12
2018-02-05T09:15:44.402Z,1029.08
2018-02-05T09:16:44.239Z,1029.13
2018-02-05T09:17:45.061Z,1029.05
2018-02-05T09:18:44.808Z,1029.11
2018-02-05T09:19:44.827Z,1029.01
2018-02-05T09:21:07.431Z,1029.03
2018-02-05T09:22:07.777Z,1029.04
2018-02-05T09:23:08.533Z,1029.06
2018-02-05T09:24:08.025Z,1029.02
2018-02-05T09:25:08.440Z,1029.01
2018-02-05T09:26:08.283Z,1028.98
2018-02-05T09:27:07.762Z,1029.01
2018-02-05T09:28:08.730Z,1029.01
2018-02-05T09:29:08.363Z,1029.02
2018-02-05T09:30:08.248Z,1028.97
2018-02-05T09:31:08.116Z,1029.00
2018-02-05T09:32:30.484Z,1028.94
2018-02-05T09:33:30.969Z,1028.99
2018-02-05T09:34:30.936Z,1028.99
2018-02-05T09:35:30.361Z,1028.99
2018-02-05T09:36:31.270Z,1029.02
2018-02-05T09:37:31.121Z,1028.93
2018-02-05T09:38:30.443Z,1028.99
2018-02-05T09:39:31.001Z,1028.97
2018-02-05T09:40:30.562Z,1028.95
2018-02-05T09:41:31.308Z,1028.91
2018-02-05T09:42:31.325Z,1028.99
2018-02-05T09:43:30.898Z,1028.94
2018-02-05T09:44:52.778Z,1028.90
2018-02-05T09:45:53.930Z,1028.89
2018-02-05T09:46:53.653Z,1028.97
2018-02-05T09:47:53.143Z,1028.81
2018-02-05T09:48:53.903Z,1028.84
2018-02-05T09:49:53.327Z,1028.84
2018-02-05T09:51:15.230Z,1028.86
2018-02-05T09:52:15.895Z,1028.88
2018-02-05T09:53:15.602Z,1028.87
2018-02-05T09:54:15.137Z,1028.85
2018-02-05T09:55:16.139Z,1028.94
2018-02-05T09:56:15.653Z,1028.94
2018-02-05T09:57:15.542Z,1028.93
2018-02-05T09:58:15.046Z,1028.92
2018-02-05T09:59:16.224Z,1028.95
2018-02-05T10:00:15.740Z,1028.94
2018-02-05T10:01:15.286Z,1028.96
2018-02-05T10:02:37.422Z,1028.96
2018-02-05T10:03:37.069Z,1028.99
2018-02-05T10:04:37.681Z,1029.01
2018-02-05T10:05:37.252Z,1029.01
2018-02-05T10:06:58.889Z,1029.02
2018-02-05T10:07:59.908Z,1029.05
2018-02-05T10:08:59.645Z,1029.06
2018-02-05T10:09:59.215Z,1029.14
2018-02-05T10:11:00.156Z,1029.03
2018-02-05T10:12:00.907Z,1029.06
2018-02-05T10:12:59.650Z,1029.07
2018-02-05T10:14:00.017Z,1029.08
2018-02-05T10:14:59.325Z,1029.10
2018-02-05T10:15:59.728Z,1029.06
2018-02-05T10:16:59.114Z,1029.16
2018-02-05T10:17:59.878Z,1029.15
2018-02-05T10:18:59.408Z,1029.19
2018-02-05T10:19:59.993Z,1029.20
2018-02-05T10:20:59.275Z,1029.16
2018-02-05T10:21:59.475Z,1029.10
2018-02-05T10:22:59.854Z,1029.15
2018-02-05T10:23:59.537Z,1029.19
2018-02-05T10:24:59.368Z,1029.12
2018-02-05T10:25:59.711Z,1029.15
2018-02-05T10:26:59.737Z,1029.17
2018-02-05T10:27:59.362Z,1029.12
2018-02-05T10:28:59.718Z,1029.20
2018-02-05T10:30:21.883Z,1029.22
2018-02-05T10:31:22.696Z,1029.19
2018-02-05T10:32:22.639Z,1029.18
2018-02-05T10:33:22.563Z,1029.15
2018-02-05T10:34:21.891Z,1029.17
2018-02-05T10:35:21.712Z,1029.17
2018-02-05T10:36:22.489Z,1029.14
2018-02-05T10:37:22.062Z,1029.18
2018-02-05T10:38:21.854Z,1029.20
2018-02-05T10:39:22.455Z,1029.14
2018-02-05T10:40:22.111Z,1029.14
2018-02-05T10:41:22.084Z,1029.11
2018-02-05T10:42:22.136Z,1029.12
2018-02-05T10:43:21.543Z,1029.09
2018-02-05T10:44:22.293Z,1029.10
2018-02-05T10:45:22.090Z,1029.13
2018-02-05T10:46:21.861Z,1029.08
2018-02-05T10:47:22.716Z,1029.06
2018-02-05T10:48:22.563Z,1029.01
2018-02-05T10:49:22.015Z,1029.06
2018-02-05T10:50:22.406Z,1029.06
2018-02-05T10:51:21.957Z,1029.07
2018-02-05T10:52:22.297Z,1029.07
2018-02-05T10:53:43.330Z,1029.06
2018-02-05T10:54:43.917Z,1029.04
2018-02-05T10:55:43.268Z,1029.00
2018-02-05T10:56:44.057Z,1029.00
2018-02-05T10:57:44.025Z,1029.00
2018-02-05T10:58:43.410Z,1029.07
2018-02-05T10:59:43.437Z,1028.96
2018-02-05T11:00:44.377Z,1028.95
2018-02-05T11:02:04.871Z,1028.93
2018-02-05T11:03:05.553Z,1028.94
2018-02-05T11:04:05.081Z,1028.89
2018-02-05T11:05:05.535Z,1028.90
2018-02-05T11:06:05.033Z,1028.84
2018-02-05T11:07:05.432Z,1028.83
2018-02-05T11:08:05.041Z,1028.83
2018-02-05T11:09:05.896Z,1028.82
2018-02-05T11:10:05.721Z,1028.80
2018-02-05T11:11:05.257Z,1028.85
2018-02-05T11:12:04.819Z,1028.80
2018-02-05T11:13:05.530Z,1028.79
2018-02-05T11:14:05.348Z,1028.80
2018-02-05T11:15:05.012Z,1028.77
2018-02-05T11:16:05.830Z,1028.75
2018-02-05T11:17:05.710Z,1028.63
2018-02-05T11:18:05.561Z,1028.66
2018-02-05T11:19:05.662Z,1028.63
2018-02-05T11:20:05.398Z,1028.66
2018-02-05T11:21:05.193Z,1028.69
2018-02-05T11:22:05.654Z,1028.64
2018-02-05T11:23:27.234Z,1028.55
2018-02-05T11:24:28.159Z,1028.49
2018-02-05T11:25:27.674Z,1028.48
2018-02-05T11:26:27.539Z,1028.50
2018-02-05T11:27:27.417Z,1028.47
2018-02-05T11:28:28.148Z,1028.42
2018-02-05T11:29:28.084Z,1028.40
2018-02-05T11:30:27.665Z,1028.42
2018-02-05T11:31:27.651Z,1028.41
2018-02-05T11:32:27.328Z,1028.40
2018-02-05T11:33:26.801Z,1028.41
2018-02-05T11:34:48.997Z,1028.36
2018-02-05T11:35:49.908Z,1028.33
2018-02-05T11:37:11.148Z,1028.37
2018-02-05T11:38:11.885Z,1028.37
2018-02-05T11:39:12.655Z,1028.42
2018-02-05T11:40:32.793Z,1028.37
2018-02-05T11:41:33.378Z,1028.41
2018-02-05T11:42:32.726Z,1028.35
2018-02-05T11:43:33.283Z,1028.30
2018-02-05T11:44:33.848Z,1028.29
2018-02-05T11:45:33.323Z,1028.33
2018-02-05T11:46:34.169Z,1028.30
2018-02-05T11:47:34.005Z,1028.29
2018-02-05T11:48:55.485Z,1028.31
2018-02-05T11:49:56.146Z,1028.31
2018-02-05T11:50:56.122Z,1028.26
2018-02-05T11:51:55.678Z,1028.30
2018-02-05T11:52:56.010Z,1028.34
2018-02-05T11:53:55.781Z,1028.25
2018-02-05T11:54:55.706Z,1028.30
2018-02-05T11:55:55.436Z,1028.29
2018-02-05T11:56:56.055Z,1028.28
2018-02-05T11:57:56.457Z,1028.19
2018-02-05T11:58:56.015Z,1028.23
2018-02-05T11:59:55.952Z,1028.24
2018-02-05T12:00:55.838Z,1028.30
2018-02-05T12:01:55.773Z,1028.30
2018-02-05T12:02:55.595Z,1028.25
2018-02-05T12:03:55.586Z,1028.27
2018-02-05T12:04:55.497Z,1028.24
2018-02-05T12:05:56.292Z,1028.23
2018-02-05T12:07:17.301Z,1028.21
2018-02-05T12:08:17.979Z,1028.19
2018-02-05T12:09:17.794Z,1028.26
2018-02-05T12:10:17.836Z,1028.23
2018-02-05T12:11:17.752Z,1028.26
2018-02-05T12:12:17.354Z,1028.29
2018-02-05T12:13:17.808Z,1028.26
2018-02-05T12:14:17.642Z,1028.21
2018-02-05T12:15:17.616Z,1028.23
2018-02-05T12:16:17.019Z,1028.21
2018-02-05T12:17:18.477Z,1028.26
2018-02-05T12:18:17.008Z,1028.25
2018-02-05T12:19:17.821Z,1028.26
2018-02-05T12:20:17.887Z,1028.24
2018-02-05T12:21:17.841Z,1028.22
2018-02-05T12:22:17.521Z,1028.23
2018-02-05T12:23:39.951Z,1028.23
2018-02-05T12:24:40.253Z,1028.22
2018-02-05T12:25:39.740Z,1028.17